メインページ
METAR-TAF:

METAR-TAF

空港 :

レイキャヴィーク空港

レイキャヴィーク, アイスランド

緯度: 64-08N, 経度: 021-54W, 海抜: 54m

現時点の気象観測

当レポートは46分前の07:00(UTC)に作成
北/北西の風 9kt
気温 9°C
湿度 53%
気圧 1009 hPa
視程10km以上
1,500メートル以下は雲なし、積乱雲なし

METAR: BIRK 170700Z 34009KT CAVOK 09/00 Q1009

時間: 07:46 (07:46 UTC)

予報

当レポートは2時間48分前の04:58(UTC)に作成
予報は17日の 06時(UTC)から 18日の 06時(UTC)まで有効
の風 8kt
視程10km以上
高度4000ftの雲はほとんどない

TAF: BIRK 170458Z 1706/1806 36008KT 9999 FEW040 TX14/1713Z TN07/1805Z

4,000以上の空港の気象観測と天気予報(METAR報とTAF報)

利用可能な観測所は地図上に黄色い丸と赤い丸で示す。

丸の上にカーソルを重ねると観測所名を参照できる。

次にクリックすると気象観測と天気予報を参照できる。

マップの切り替え:黒色「×」印の緑ボタンをクリックして拡大、「-」印の緑ボタンをクリックして縮小、緑色の三角印をクリックして隣りの地図に切り替え


METAR-TAF: